createdAt,value
2022-12-13T00:01:55.857Z,100282.31
2022-12-13T00:04:25.707Z,100282.31
2022-12-13T00:06:54.907Z,100289.28
2022-12-13T00:09:24.481Z,100284.94
2022-12-13T00:11:54.703Z,100286.72
2022-12-13T00:14:23.018Z,100290.19
2022-12-13T00:16:51.709Z,100285.00
2022-12-13T00:19:21.325Z,100286.72
2022-12-13T00:21:49.495Z,100280.69
2022-12-13T00:24:18.083Z,100271.13
2022-12-13T00:26:46.908Z,100273.75
2022-12-13T00:29:15.400Z,100272.94
2022-12-13T00:31:58.666Z,100276.41
2022-12-13T00:34:29.341Z,100267.78
2022-12-13T00:43:29.649Z,100271.41
2022-12-13T00:46:55.277Z,100268.91
2022-12-13T00:53:18.539Z,100268.16
2022-12-13T00:55:48.118Z,100267.31
2022-12-13T00:58:17.066Z,100257.78
2022-12-13T01:00:46.495Z,100253.47
2022-12-13T01:03:25.333Z,100257.78
2022-12-13T01:08:46.452Z,100256.97
2022-12-13T01:16:07.833Z,100249.25
2022-12-13T01:19:10.238Z,100262.31
2022-12-13T01:22:19.694Z,100268.44
2022-12-13T01:25:04.666Z,100265.84
2022-12-13T01:31:28.772Z,100260.72
2022-12-13T01:34:45.571Z,100252.16
2022-12-13T01:37:32.189Z,100247.91
2022-12-13T01:40:08.909Z,100239.28
2022-12-13T01:42:45.039Z,100242.72
2022-12-13T01:45:24.594Z,100235.84
2022-12-13T01:47:58.511Z,100236.69
2022-12-13T01:50:32.936Z,100233.19
2022-12-13T01:53:02.035Z,100243.53
2022-12-13T01:55:41.494Z,100236.63
2022-12-13T01:58:11.351Z,100240.06
2022-12-13T02:00:41.006Z,100238.34
2022-12-13T02:03:21.792Z,100230.53
2022-12-13T02:05:57.299Z,100240.91
2022-12-13T02:08:30.003Z,100226.19
2022-12-13T02:10:59.913Z,100234.81
2022-12-13T02:13:28.435Z,100229.63
2022-12-13T02:16:06.521Z,100230.50
2022-12-13T02:18:52.462Z,100230.50
2022-12-13T02:21:27.923Z,100227.06
2022-12-13T02:24:20.246Z,100218.41
2022-12-13T02:27:08.521Z,100222.78
2022-12-13T02:30:03.885Z,100227.09
2022-12-13T02:32:40.688Z,100230.63
2022-12-13T02:35:13.441Z,100235.88
2022-12-13T02:37:52.553Z,100224.75
2022-12-13T02:40:27.641Z,100223.09
2022-12-13T02:43:02.280Z,100221.34
2022-12-13T02:45:35.726Z,100217.94
2022-12-13T02:48:09.422Z,100224.00
2022-12-13T02:50:40.179Z,100219.69
2022-12-13T02:53:10.693Z,100213.69
2022-12-13T02:55:40.928Z,100217.22
2022-12-13T02:58:14.015Z,100222.41
2022-12-13T03:00:55.121Z,100218.97
2022-12-13T03:03:38.263Z,100207.78
2022-12-13T03:06:34.754Z,100207.81
2022-12-13T03:09:21.166Z,100203.53
2022-12-13T03:12:32.647Z,100207.03
2022-12-13T03:15:23.411Z,100209.63
2022-12-13T03:17:59.248Z,100214.00
2022-12-13T03:20:33.010Z,100213.19
2022-12-13T03:23:01.791Z,100208.03
2022-12-13T03:26:17.402Z,100211.53
2022-12-13T03:29:23.284Z,100208.97
2022-12-13T03:34:44.597Z,100207.28
2022-12-13T03:45:45.179Z,100205.66
2022-12-13T03:48:22.377Z,100198.78
2022-12-13T04:37:54.713Z,100186.03
2022-12-13T04:40:25.237Z,100201.62
2022-12-13T04:42:54.689Z,100188.66
2022-12-13T04:45:23.979Z,100198.16
2022-12-13T04:47:52.458Z,100194.72
2022-12-13T04:50:21.138Z,100193.84
2022-12-13T04:52:49.745Z,100200.78
2022-12-13T04:55:19.350Z,100198.22
2022-12-13T04:57:47.869Z,100197.38
2022-12-13T05:00:17.109Z,100208.59
2022-12-13T05:02:45.409Z,100206.00
2022-12-13T05:05:15.356Z,100206.00
2022-12-13T05:07:44.051Z,100202.56
2022-12-13T05:10:32.202Z,100208.59
2022-12-13T05:13:03.432Z,100200.84
2022-12-13T05:15:31.883Z,100208.62
2022-12-13T05:18:09.966Z,100202.59
2022-12-13T05:20:39.903Z,100196.59
2022-12-13T05:23:08.660Z,100194.88
2022-12-13T05:25:37.505Z,100188.03
2022-12-13T05:28:27.165Z,100200.06
2022-12-13T05:30:57.483Z,100198.38
2022-12-13T05:33:26.886Z,100200.13
2022-12-13T09:41:19.424Z,100273.41
2022-12-13T09:43:54.628Z,100263.63
2022-12-13T09:46:34.812Z,100268.88
2022-12-13T09:49:25.610Z,100255.62
2022-12-13T09:52:10.656Z,100251.88
2022-12-13T09:54:48.229Z,100248.09
2022-12-13T09:57:32.204Z,100254.78
2022-12-13T10:00:04.082Z,100244.19
2022-12-13T10:02:44.285Z,100254.56
2022-12-13T10:05:22.702Z,100247.34
2022-12-13T10:07:55.696Z,100243.66
2022-12-13T10:10:24.877Z,100240.00
2022-12-13T10:12:59.817Z,100236.31
2022-12-13T10:15:29.546Z,100231.75
2022-12-13T10:17:59.270Z,100224.63
2022-12-13T10:20:29.995Z,100229.59
2022-12-13T10:25:54.836Z,100231.00
2022-12-13T10:28:34.737Z,100226.28
2022-12-13T10:31:04.629Z,100233.31
2022-12-13T10:33:34.855Z,100229.81
2022-12-13T10:36:07.285Z,100225.44
2022-12-13T10:38:41.985Z,100220.19
2022-12-13T10:41:28.574Z,100228.81
2022-12-13T10:44:22.584Z,100222.72
2022-12-13T10:46:54.870Z,100215.00
2022-12-13T10:49:25.976Z,100211.72
2022-12-13T10:51:55.014Z,100214.41
2022-12-13T10:54:29.701Z,100215.91
2022-12-13T10:57:12.311Z,100213.91
2022-12-13T10:59:41.910Z,100214.72
2022-12-13T11:02:31.371Z,100213.91
2022-12-13T11:05:03.467Z,100214.84
2022-12-13T11:07:35.255Z,100215.78
2022-12-13T11:10:20.108Z,100214.84
2022-12-13T11:12:52.939Z,100213.63
2022-12-13T11:15:26.650Z,100208.19
2022-12-13T11:17:58.672Z,100219.38
2022-12-13T11:20:30.075Z,100213.19
2022-12-13T11:23:04.932Z,100207.75
2022-12-13T11:25:41.276Z,100205.91
2022-12-13T11:28:37.256Z,100202.25
2022-12-13T11:31:15.739Z,100203.59
2022-12-13T11:33:56.059Z,100199.78
2022-12-13T11:36:36.909Z,100197.78
2022-12-13T11:39:18.574Z,100201.22
2022-12-13T11:41:55.332Z,100205.72
2022-12-13T11:44:30.897Z,100196.06
2022-12-13T11:47:02.103Z,100194.28
2022-12-13T11:49:39.943Z,100197.31
2022-12-13T11:52:16.364Z,100191.84
2022-12-13T11:54:50.983Z,100189.63
2022-12-13T11:57:31.487Z,100180.09
2022-12-13T12:00:13.216Z,100182.59
2022-12-13T12:02:50.781Z,100176.37
2022-12-13T12:05:28.457Z,100183.09
2022-12-13T12:08:31.792Z,100182.25
2022-12-13T12:10:52.636Z,100188.09
2022-12-13T12:13:24.815Z,100183.56
2022-12-13T12:16:05.869Z,100186.03
2022-12-13T12:18:37.013Z,100179.78
2022-12-13T12:21:18.430Z,100176.47
2022-12-13T12:23:59.708Z,100178.88
2022-12-13T12:26:34.248Z,100182.00
2022-12-13T12:29:21.418Z,100180.16
2022-12-13T12:32:03.005Z,100178.19
2022-12-13T12:34:46.518Z,100173.81
2022-12-13T12:37:26.378Z,100174.41
2022-12-13T12:40:08.450Z,100169.56
2022-12-13T12:43:14.374Z,100172.13
2022-12-13T12:46:04.348Z,100177.03
2022-12-13T12:49:02.324Z,100168.34
2022-12-13T12:51:42.795Z,100166.47
2022-12-13T12:54:32.340Z,100165.56
2022-12-13T12:57:07.622Z,100167.31
2022-12-13T12:59:47.466Z,100157.75
2022-12-13T13:02:23.591Z,100161.22
2022-12-13T13:05:00.158Z,100164.84
2022-12-13T13:07:40.086Z,100162.25
2022-12-13T13:10:16.691Z,100156.28
2022-12-13T13:13:11.343Z,100164.28
2022-12-13T13:15:56.709Z,100163.47
2022-12-13T13:18:51.322Z,100165.28
2022-12-13T13:21:28.490Z,100162.69
2022-12-13T13:24:14.283Z,100164.53
2022-12-13T13:26:45.164Z,100164.59
2022-12-13T13:29:31.343Z,100161.97
2022-12-13T13:32:02.578Z,100160.16
2022-12-13T13:34:36.460Z,100168.12
2022-12-13T13:37:06.633Z,100171.84
2022-12-13T13:39:55.819Z,100170.34
2022-12-13T13:42:25.994Z,100175.63
2022-12-13T13:45:23.417Z,100175.87
2022-12-13T13:48:14.509Z,100172.69
2022-12-13T13:51:25.892Z,100174.91
2022-12-13T13:54:25.410Z,100176.09
2022-12-13T13:58:00.372Z,100180.06
2022-12-13T14:00:23.824Z,100176.13
2022-12-13T14:03:34.262Z,100177.97
2022-12-13T14:06:46.112Z,100185.78
2022-12-13T14:09:57.382Z,100179.75
2022-12-13T14:12:56.511Z,100175.63
2022-12-13T14:15:50.057Z,100176.78
2022-12-13T14:18:58.872Z,100172.66
2022-12-13T14:21:35.544Z,100184.13
2022-12-13T14:24:15.117Z,100178.19
2022-12-13T14:27:00.678Z,100179.34
2022-12-13T14:29:32.540Z,100176.94
2022-12-13T14:32:03.020Z,100171.00
2022-12-13T14:34:33.858Z,100171.91
2022-12-13T14:37:04.763Z,100168.50
2022-12-13T14:39:34.781Z,100164.34
2022-12-13T14:42:23.056Z,100164.53
2022-12-13T14:44:51.692Z,100164.66
2022-12-13T14:47:23.352Z,100160.44
2022-12-13T14:49:55.836Z,100160.53
2022-12-13T14:52:27.831Z,100150.13
2022-12-13T14:54:59.437Z,100152.97
2022-12-13T14:57:29.811Z,100153.31
2022-12-13T15:40:26.571Z,100166.44
2022-12-13T15:42:55.347Z,100174.38
2022-12-13T15:45:25.592Z,100170.13
2022-12-13T15:47:55.291Z,100169.34
2022-12-13T15:50:34.135Z,100172.00
2022-12-13T15:53:04.658Z,100175.44
2022-12-13T15:55:37.456Z,100171.12
2022-12-13T15:58:26.636Z,100172.00
2022-12-13T16:00:55.359Z,100173.84
2022-12-13T16:03:26.882Z,100168.66
2022-12-13T16:05:57.158Z,100161.78
2022-12-13T16:08:30.214Z,100162.03
2022-12-13T16:11:00.487Z,100151.75
2022-12-13T16:13:31.233Z,100157.78
2022-12-13T16:16:09.454Z,100143.91
2022-12-13T16:18:46.920Z,100168.25
2022-12-13T16:21:15.408Z,100149.25
2022-12-13T16:23:48.475Z,100146.69
2022-12-13T16:26:25.630Z,100147.50
2022-12-13T16:28:54.412Z,100142.31
2022-12-13T16:31:25.117Z,100146.75
2022-12-13T16:33:53.626Z,100147.84
2022-12-13T16:36:21.907Z,100141.00
2022-12-13T16:38:50.759Z,100136.72
2022-12-13T16:41:19.246Z,100134.97
2022-12-13T16:43:56.245Z,100137.56
2022-12-13T16:47:17.353Z,100128.94
2022-12-13T16:49:21.295Z,100135.03
2022-12-13T16:51:52.707Z,100126.41
2022-12-13T16:54:22.869Z,100135.91
2022-12-13T16:56:52.550Z,100131.63
2022-12-13T16:59:23.785Z,100133.41
2022-12-13T17:01:53.185Z,100140.41
2022-12-13T17:04:23.411Z,100130.94
2022-12-13T17:06:55.209Z,100131.81
2022-12-13T17:09:25.569Z,100128.34
2022-12-13T17:11:54.195Z,100126.62
2022-12-13T17:14:24.004Z,100128.41
2022-12-13T17:16:52.289Z,100120.69
2022-12-13T17:19:20.750Z,100126.72
2022-12-13T17:21:49.359Z,100128.44
2022-12-13T17:24:17.959Z,100122.34
2022-12-13T17:26:53.908Z,100123.16
2022-12-13T17:29:26.012Z,100126.62
2022-12-13T17:31:54.686Z,100108.47
2022-12-13T17:34:23.194Z,100105.03
2022-12-13T17:37:03.210Z,100113.03
2022-12-13T17:43:47.342Z,100112.44
2022-12-13T18:37:13.332Z,100104.06
2022-12-13T18:39:43.911Z,100103.22
2022-12-13T18:42:23.429Z,100106.69
2022-12-13T18:44:54.672Z,100106.72
2022-12-13T18:47:23.379Z,100100.66
2022-12-13T18:49:54.853Z,100100.69
2022-12-13T18:52:27.828Z,100096.38
2022-12-13T18:54:56.413Z,100108.50
2022-12-13T18:57:24.882Z,100102.44
2022-12-13T18:59:54.060Z,100095.56
2022-12-13T19:02:31.032Z,100098.16
2022-12-13T19:05:05.811Z,100101.59
2022-12-13T19:07:35.941Z,100103.31
2022-12-13T19:10:05.104Z,100099.88
2022-12-13T19:12:35.030Z,100091.22
2022-12-13T19:15:05.173Z,100095.56
2022-12-13T19:17:36.693Z,100092.13
2022-12-13T19:20:06.975Z,100088.69
2022-12-13T19:22:39.540Z,100096.47
2022-12-13T19:25:09.135Z,100088.69
2022-12-13T19:27:37.829Z,100093.91
2022-12-13T19:30:07.333Z,100099.97
2022-12-13T19:32:39.452Z,100090.50
2022-12-13T19:35:21.816Z,100093.09
2022-12-13T19:38:02.615Z,100099.13
2022-12-13T19:40:45.808Z,100086.22
2022-12-13T19:43:25.991Z,100087.09
2022-12-13T19:46:06.163Z,100077.59
2022-12-13T19:48:43.364Z,100075.91
2022-12-13T19:51:32.065Z,100074.19
2022-12-13T19:54:13.124Z,100075.06
2022-12-13T19:56:47.522Z,100062.16
2022-12-13T19:59:16.232Z,100065.62
2022-12-13T20:01:50.805Z,100058.72
2022-12-13T20:04:19.999Z,100058.72
2022-12-13T20:06:48.734Z,100061.34
2022-12-13T20:09:18.883Z,100059.59
2022-12-13T20:11:47.757Z,100061.31
2022-12-13T20:14:16.276Z,100060.47
2022-12-13T20:16:44.859Z,100056.16
2022-12-13T20:19:15.717Z,100057.03
2022-12-13T20:21:52.255Z,100057.87
2022-12-13T20:24:25.382Z,100050.97
2022-12-13T20:26:57.320Z,100049.25
2022-12-13T20:29:29.656Z,100047.53
2022-12-13T20:31:58.777Z,100046.66
2022-12-13T20:34:27.242Z,100050.94
2022-12-13T21:37:35.407Z,99999.31
2022-12-13T21:40:06.372Z,99990.69
2022-12-13T21:42:35.011Z,99998.47
2022-12-13T21:45:03.656Z,99996.75
2022-12-13T21:47:31.889Z,99985.53
2022-12-13T21:50:00.645Z,99988.09
2022-12-13T21:52:29.583Z,99989.81
2022-12-13T21:55:15.096Z,99990.69
2022-12-13T21:58:08.201Z,99984.66
2022-12-13T22:00:55.031Z,99987.25
2022-12-13T22:03:25.534Z,99980.38
2022-12-13T22:05:53.922Z,99977.78
2022-12-13T22:08:30.286Z,99984.66
2022-12-13T22:11:21.623Z,99986.41
2022-12-13T22:13:54.501Z,99986.41
2022-12-13T22:16:23.157Z,99977.78
2022-12-13T22:18:55.150Z,99974.31
2022-12-13T22:21:24.322Z,99964.84
2022-12-13T22:23:54.436Z,99966.56
2022-12-13T22:26:23.750Z,99958.81
2022-12-13T22:28:54.798Z,99962.25
2022-12-13T22:31:29.531Z,99963.13
2022-12-13T22:34:03.127Z,99957.13
2022-12-13T22:36:31.839Z,99958.00
2022-12-13T22:39:01.737Z,99942.50
2022-12-13T22:41:31.872Z,99940.75
2022-12-13T22:44:07.105Z,99939.84
2022-12-13T22:46:38.074Z,99932.97
2022-12-13T22:49:07.232Z,99942.41
2022-12-13T22:51:42.017Z,99936.34
2022-12-13T22:54:29.484Z,99932.91
2022-12-13T22:57:10.599Z,99942.34
2022-12-13T22:59:48.138Z,99939.75
2022-12-13T23:02:21.456Z,99931.94
2022-12-13T23:04:50.054Z,99934.53
2022-12-13T23:07:18.311Z,99929.34
2022-12-13T23:09:46.693Z,99923.25
2022-12-13T23:12:32.597Z,99920.69
2022-12-13T23:15:02.196Z,99918.91
2022-12-13T23:17:31.220Z,99918.03
2022-12-13T23:19:59.542Z,99916.28
2022-12-13T23:22:27.926Z,99912.00
2022-12-13T23:24:56.545Z,99906.75
2022-12-13T23:27:25.451Z,99903.25
2022-12-13T23:29:53.570Z,99898.94
2022-12-13T23:32:23.420Z,99892.88
2022-12-13T23:34:52.414Z,99893.69
2022-12-13T23:37:20.808Z,99890.25
2022-12-13T23:39:51.470Z,99884.19
2022-12-13T23:42:21.055Z,99881.56
2022-12-13T23:44:49.575Z,99884.13
2022-12-13T23:47:19.645Z,99891.00
2022-12-13T23:49:49.401Z,99889.25
2022-12-13T23:52:17.963Z,99894.44
2022-12-13T23:54:46.363Z,99893.53
2022-12-13T23:57:15.131Z,99890.03
2022-12-13T23:59:43.720Z,99886.59
